sensor_id;sensor_type;location;lat;lon;timestamp;P1;durP1;ratioP1;P2;durP2;ratioP2
79585;SDS011;69054;50.866;4.636;2023-11-22T00:00:21;57.92;;;17.95;;
79585;SDS011;69054;50.866;4.636;2023-11-22T00:02:47;54.65;;;18.65;;
79585;SDS011;69054;50.866;4.636;2023-11-22T00:05:12;54.63;;;16.77;;
79585;SDS011;69054;50.866;4.636;2023-11-22T00:07:38;61.47;;;18.88;;
79585;SDS011;69054;50.866;4.636;2023-11-22T00:10:04;64.43;;;18.80;;
79585;SDS011;69054;50.866;4.636;2023-11-22T00:12:30;59.13;;;17.73;;
79585;SDS011;69054;50.866;4.636;2023-11-22T00:15:02;63.15;;;20.35;;
79585;SDS011;69054;50.866;4.636;2023-11-22T00:17:31;59.70;;;18.45;;
79585;SDS011;69054;50.866;4.636;2023-11-22T00:19:57;56.13;;;17.85;;
79585;SDS011;69054;50.866;4.636;2023-11-22T00:22:25;63.28;;;18.35;;
79585;SDS011;69054;50.866;4.636;2023-11-22T00:24:52;54.33;;;18.90;;
79585;SDS011;69054;50.866;4.636;2023-11-22T00:27:18;69.82;;;19.45;;
79585;SDS011;69054;50.866;4.636;2023-11-22T00:29:43;70.03;;;20.08;;
79585;SDS011;69054;50.866;4.636;2023-11-22T00:32:08;63.38;;;20.42;;
79585;SDS011;69054;50.866;4.636;2023-11-22T00:34:34;54.20;;;18.45;;
79585;SDS011;69054;50.866;4.636;2023-11-22T00:36:59;58.33;;;20.65;;
79585;SDS011;69054;50.866;4.636;2023-11-22T00:39:25;69.03;;;20.95;;
79585;SDS011;69054;50.866;4.636;2023-11-22T00:41:50;65.43;;;19.88;;
79585;SDS011;69054;50.866;4.636;2023-11-22T00:44:15;67.03;;;21.00;;
79585;SDS011;69054;50.866;4.636;2023-11-22T00:46:41;64.50;;;19.33;;
79585;SDS011;69054;50.866;4.636;2023-11-22T00:49:07;63.13;;;18.00;;
79585;SDS011;69054;50.866;4.636;2023-11-22T00:51:33;61.40;;;20.33;;
79585;SDS011;69054;50.866;4.636;2023-11-22T00:53:59;59.83;;;19.60;;
79585;SDS011;69054;50.866;4.636;2023-11-22T00:56:25;65.30;;;20.05;;
79585;SDS011;69054;50.866;4.636;2023-11-22T00:58:51;74.25;;;20.42;;
79585;SDS011;69054;50.866;4.636;2023-11-22T01:01:18;49.97;;;16.65;;
79585;SDS011;69054;50.866;4.636;2023-11-22T01:03:44;56.90;;;17.40;;
79585;SDS011;69054;50.866;4.636;2023-11-22T01:06:09;58.70;;;18.23;;
79585;SDS011;69054;50.866;4.636;2023-11-22T01:08:35;58.47;;;19.10;;
79585;SDS011;69054;50.866;4.636;2023-11-22T01:11:00;54.55;;;19.33;;
79585;SDS011;69054;50.866;4.636;2023-11-22T01:13:28;54.17;;;19.58;;
79585;SDS011;69054;50.866;4.636;2023-11-22T01:15:54;58.47;;;18.67;;
79585;SDS011;69054;50.866;4.636;2023-11-22T01:18:19;55.38;;;20.00;;
79585;SDS011;69054;50.866;4.636;2023-11-22T01:20:45;56.67;;;17.48;;
79585;SDS011;69054;50.866;4.636;2023-11-22T01:23:10;56.67;;;18.85;;
79585;SDS011;69054;50.866;4.636;2023-11-22T01:25:36;39.58;;;13.75;;
79585;SDS011;69054;50.866;4.636;2023-11-22T01:28:01;49.60;;;17.08;;
79585;SDS011;69054;50.866;4.636;2023-11-22T01:30:26;51.53;;;16.92;;
79585;SDS011;69054;50.866;4.636;2023-11-22T01:32:53;51.58;;;17.58;;
79585;SDS011;69054;50.866;4.636;2023-11-22T01:35:20;53.80;;;17.50;;
79585;SDS011;69054;50.866;4.636;2023-11-22T01:37:45;53.70;;;16.85;;
79585;SDS011;69054;50.866;4.636;2023-11-22T01:40:11;57.22;;;18.10;;
79585;SDS011;69054;50.866;4.636;2023-11-22T01:42:37;51.50;;;16.70;;
79585;SDS011;69054;50.866;4.636;2023-11-22T01:45:05;49.15;;;18.58;;
79585;SDS011;69054;50.866;4.636;2023-11-22T01:47:35;53.17;;;18.65;;
79585;SDS011;69054;50.866;4.636;2023-11-22T01:50:02;59.83;;;18.33;;
79585;SDS011;69054;50.866;4.636;2023-11-22T01:52:30;52.30;;;16.48;;
79585;SDS011;69054;50.866;4.636;2023-11-22T01:54:55;52.42;;;17.75;;
79585;SDS011;69054;50.866;4.636;2023-11-22T01:57:21;50.08;;;16.00;;
79585;SDS011;69054;50.866;4.636;2023-11-22T01:59:46;51.75;;;18.00;;
79585;SDS011;69054;50.866;4.636;2023-11-22T02:02:12;50.70;;;17.70;;
79585;SDS011;69054;50.866;4.636;2023-11-22T02:04:38;54.83;;;17.88;;
79585;SDS011;69054;50.866;4.636;2023-11-22T02:07:04;55.17;;;18.27;;
79585;SDS011;69054;50.866;4.636;2023-11-22T02:09:29;52.00;;;18.25;;
79585;SDS011;69054;50.866;4.636;2023-11-22T02:11:55;48.65;;;18.17;;
79585;SDS011;69054;50.866;4.636;2023-11-22T02:14:20;51.47;;;18.42;;
79585;SDS011;69054;50.866;4.636;2023-11-22T02:16:46;50.55;;;19.40;;
79585;SDS011;69054;50.866;4.636;2023-11-22T02:19:14;52.08;;;17.95;;
79585;SDS011;69054;50.866;4.636;2023-11-22T02:21:41;50.83;;;16.38;;
79585;SDS011;69054;50.866;4.636;2023-11-22T02:24:07;57.28;;;19.50;;
79585;SDS011;69054;50.866;4.636;2023-11-22T02:26:33;43.50;;;16.88;;
79585;SDS011;69054;50.866;4.636;2023-11-22T02:28:58;45.60;;;16.67;;
79585;SDS011;69054;50.866;4.636;2023-11-22T02:31:24;43.15;;;16.38;;
79585;SDS011;69054;50.866;4.636;2023-11-22T02:33:50;49.45;;;19.33;;
79585;SDS011;69054;50.866;4.636;2023-11-22T02:36:15;41.78;;;15.40;;
79585;SDS011;69054;50.866;4.636;2023-11-22T02:38:41;46.85;;;15.55;;
79585;SDS011;69054;50.866;4.636;2023-11-22T02:41:07;38.05;;;13.77;;
79585;SDS011;69054;50.866;4.636;2023-11-22T02:43:34;38.83;;;15.65;;
79585;SDS011;69054;50.866;4.636;2023-11-22T02:46:00;45.20;;;16.42;;
79585;SDS011;69054;50.866;4.636;2023-11-22T02:48:26;37.22;;;13.30;;
79585;SDS011;69054;50.866;4.636;2023-11-22T02:50:51;38.28;;;15.50;;
79585;SDS011;69054;50.866;4.636;2023-11-22T02:53:19;41.28;;;15.02;;
79585;SDS011;69054;50.866;4.636;2023-11-22T02:55:44;43.03;;;15.70;;
79585;SDS011;69054;50.866;4.636;2023-11-22T02:58:10;43.78;;;15.48;;
79585;SDS011;69054;50.866;4.636;2023-11-22T03:00:37;44.75;;;15.07;;
79585;SDS011;69054;50.866;4.636;2023-11-22T03:03:03;39.50;;;14.35;;
79585;SDS011;69054;50.866;4.636;2023-11-22T03:05:30;46.50;;;16.35;;
79585;SDS011;69054;50.866;4.636;2023-11-22T03:07:56;44.78;;;15.77;;
79585;SDS011;69054;50.866;4.636;2023-11-22T03:10:24;44.55;;;16.30;;
79585;SDS011;69054;50.866;4.636;2023-11-22T03:12:49;42.70;;;15.68;;
79585;SDS011;69054;50.866;4.636;2023-11-22T03:15:15;33.88;;;13.75;;
79585;SDS011;69054;50.866;4.636;2023-11-22T03:17:40;38.80;;;14.90;;
79585;SDS011;69054;50.866;4.636;2023-11-22T03:20:06;36.33;;;14.73;;
79585;SDS011;69054;50.866;4.636;2023-11-22T03:22:36;38.30;;;15.73;;
79585;SDS011;69054;50.866;4.636;2023-11-22T03:25:02;43.33;;;16.42;;
79585;SDS011;69054;50.866;4.636;2023-11-22T03:27:29;36.40;;;14.25;;
79585;SDS011;69054;50.866;4.636;2023-11-22T03:29:54;38.80;;;14.73;;
79585;SDS011;69054;50.866;4.636;2023-11-22T03:32:20;41.05;;;16.15;;
79585;SDS011;69054;50.866;4.636;2023-11-22T03:34:45;41.65;;;14.60;;
79585;SDS011;69054;50.866;4.636;2023-11-22T03:37:10;38.13;;;13.55;;
79585;SDS011;69054;50.866;4.636;2023-11-22T03:39:36;37.70;;;15.48;;
79585;SDS011;69054;50.866;4.636;2023-11-22T03:42:02;34.97;;;13.90;;
79585;SDS011;69054;50.866;4.636;2023-11-22T03:44:28;36.20;;;14.32;;
79585;SDS011;69054;50.866;4.636;2023-11-22T03:46:55;37.55;;;13.80;;
79585;SDS011;69054;50.866;4.636;2023-11-22T03:49:20;36.90;;;14.48;;
79585;SDS011;69054;50.866;4.636;2023-11-22T03:51:46;33.97;;;14.60;;
79585;SDS011;69054;50.866;4.636;2023-11-22T03:54:12;35.42;;;14.27;;
79585;SDS011;69054;50.866;4.636;2023-11-22T03:56:38;37.42;;;13.57;;
79585;SDS011;69054;50.866;4.636;2023-11-22T03:59:04;35.30;;;14.02;;
79585;SDS011;69054;50.866;4.636;2023-11-22T04:01:29;42.20;;;15.20;;
79585;SDS011;69054;50.866;4.636;2023-11-22T04:03:55;38.53;;;13.68;;
79585;SDS011;69054;50.866;4.636;2023-11-22T04:06:21;33.40;;;14.32;;
79585;SDS011;69054;50.866;4.636;2023-11-22T04:08:48;35.30;;;12.80;;
79585;SDS011;69054;50.866;4.636;2023-11-22T04:11:13;35.67;;;12.70;;
79585;SDS011;69054;50.866;4.636;2023-11-22T04:13:39;43.85;;;13.75;;
79585;SDS011;69054;50.866;4.636;2023-11-22T04:16:05;33.28;;;13.55;;
79585;SDS011;69054;50.866;4.636;2023-11-22T04:18:34;42.08;;;14.38;;
79585;SDS011;69054;50.866;4.636;2023-11-22T04:21:00;43.92;;;14.40;;
79585;SDS011;69054;50.866;4.636;2023-11-22T04:23:26;51.50;;;16.05;;
79585;SDS011;69054;50.866;4.636;2023-11-22T04:25:51;44.92;;;15.90;;
79585;SDS011;69054;50.866;4.636;2023-11-22T04:28:17;48.50;;;15.50;;
79585;SDS011;69054;50.866;4.636;2023-11-22T04:30:43;49.35;;;15.15;;
79585;SDS011;69054;50.866;4.636;2023-11-22T04:33:08;47.17;;;14.60;;
79585;SDS011;69054;50.866;4.636;2023-11-22T04:35:34;53.60;;;17.40;;
79585;SDS011;69054;50.866;4.636;2023-11-22T04:38:02;50.17;;;15.70;;
79585;SDS011;69054;50.866;4.636;2023-11-22T04:40:28;52.53;;;16.30;;
79585;SDS011;69054;50.866;4.636;2023-11-22T04:42:54;57.50;;;17.25;;
79585;SDS011;69054;50.866;4.636;2023-11-22T04:45:19;55.70;;;16.85;;
79585;SDS011;69054;50.866;4.636;2023-11-22T04:47:45;55.17;;;15.95;;
79585;SDS011;69054;50.866;4.636;2023-11-22T04:50:10;57.90;;;15.45;;
79585;SDS011;69054;50.866;4.636;2023-11-22T04:52:36;63.67;;;14.57;;
79585;SDS011;69054;50.866;4.636;2023-11-22T04:55:01;54.95;;;16.35;;
79585;SDS011;69054;50.866;4.636;2023-11-22T04:57:26;51.50;;;15.07;;
79585;SDS011;69054;50.866;4.636;2023-11-22T04:59:52;46.15;;;14.70;;
79585;SDS011;69054;50.866;4.636;2023-11-22T05:02:18;45.47;;;15.43;;
79585;SDS011;69054;50.866;4.636;2023-11-22T05:04:44;42.05;;;15.20;;
79585;SDS011;69054;50.866;4.636;2023-11-22T05:07:13;48.17;;;14.80;;
79585;SDS011;69054;50.866;4.636;2023-11-22T05:09:39;47.05;;;13.65;;
79585;SDS011;69054;50.866;4.636;2023-11-22T05:12:04;41.90;;;14.05;;
79585;SDS011;69054;50.866;4.636;2023-11-22T05:14:30;40.10;;;14.80;;
79585;SDS011;69054;50.866;4.636;2023-11-22T05:16:56;39.20;;;14.65;;
79585;SDS011;69054;50.866;4.636;2023-11-22T05:19:21;38.63;;;14.75;;
79585;SDS011;69054;50.866;4.636;2023-11-22T05:21:47;36.17;;;14.07;;
79585;SDS011;69054;50.866;4.636;2023-11-22T05:24:12;41.63;;;15.05;;
79585;SDS011;69054;50.866;4.636;2023-11-22T05:26:40;59.17;;;15.82;;
79585;SDS011;69054;50.866;4.636;2023-11-22T05:29:05;80.75;;;19.42;;
79585;SDS011;69054;50.866;4.636;2023-11-22T05:31:31;68.30;;;18.38;;
79585;SDS011;69054;50.866;4.636;2023-11-22T05:33:56;78.32;;;19.23;;
79585;SDS011;69054;50.866;4.636;2023-11-22T05:36:21;79.18;;;18.02;;
79585;SDS011;69054;50.866;4.636;2023-11-22T05:38:47;80.53;;;18.13;;
79585;SDS011;69054;50.866;4.636;2023-11-22T05:41:12;120.25;;;21.00;;
79585;SDS011;69054;50.866;4.636;2023-11-22T05:43:38;72.75;;;18.70;;
79585;SDS011;69054;50.866;4.636;2023-11-22T05:46:04;67.70;;;17.65;;
79585;SDS011;69054;50.866;4.636;2023-11-22T05:48:29;49.95;;;15.60;;
79585;SDS011;69054;50.866;4.636;2023-11-22T05:50:55;65.70;;;16.27;;
79585;SDS011;69054;50.866;4.636;2023-11-22T05:53:21;62.10;;;16.48;;
79585;SDS011;69054;50.866;4.636;2023-11-22T05:55:46;66.18;;;15.88;;
79585;SDS011;69054;50.866;4.636;2023-11-22T05:58:12;56.60;;;15.93;;
79585;SDS011;69054;50.866;4.636;2023-11-22T06:00:41;61.40;;;15.75;;
79585;SDS011;69054;50.866;4.636;2023-11-22T06:03:10;55.50;;;14.75;;
79585;SDS011;69054;50.866;4.636;2023-11-22T06:05:36;45.15;;;13.82;;
79585;SDS011;69054;50.866;4.636;2023-11-22T06:08:02;47.53;;;14.35;;
79585;SDS011;69054;50.866;4.636;2023-11-22T06:10:27;58.70;;;15.82;;
79585;SDS011;69054;50.866;4.636;2023-11-22T06:12:53;64.93;;;16.20;;
79585;SDS011;69054;50.866;4.636;2023-11-22T06:15:18;51.97;;;17.13;;
79585;SDS011;69054;50.866;4.636;2023-11-22T06:17:47;62.47;;;16.35;;
79585;SDS011;69054;50.866;4.636;2023-11-22T06:20:16;56.88;;;15.48;;
79585;SDS011;69054;50.866;4.636;2023-11-22T06:22:42;48.90;;;15.60;;
79585;SDS011;69054;50.866;4.636;2023-11-22T06:25:13;48.08;;;15.90;;
79585;SDS011;69054;50.866;4.636;2023-11-22T06:27:39;49.53;;;14.80;;
79585;SDS011;69054;50.866;4.636;2023-11-22T06:30:05;50.58;;;15.45;;
79585;SDS011;69054;50.866;4.636;2023-11-22T06:32:31;45.03;;;16.50;;
79585;SDS011;69054;50.866;4.636;2023-11-22T06:34:57;48.03;;;15.43;;
79585;SDS011;69054;50.866;4.636;2023-11-22T06:37:23;50.00;;;16.10;;
79585;SDS011;69054;50.866;4.636;2023-11-22T06:39:48;44.90;;;15.45;;
79585;SDS011;69054;50.866;4.636;2023-11-22T06:42:13;41.80;;;14.02;;
79585;SDS011;69054;50.866;4.636;2023-11-22T06:44:39;39.00;;;15.43;;
79585;SDS011;69054;50.866;4.636;2023-11-22T06:47:07;40.78;;;14.25;;
79585;SDS011;69054;50.866;4.636;2023-11-22T06:49:33;37.70;;;14.80;;
79585;SDS011;69054;50.866;4.636;2023-11-22T06:51:59;40.92;;;15.07;;
79585;SDS011;69054;50.866;4.636;2023-11-22T06:54:25;45.83;;;14.55;;
79585;SDS011;69054;50.866;4.636;2023-11-22T06:56:50;42.88;;;14.93;;
79585;SDS011;69054;50.866;4.636;2023-11-22T06:59:16;46.97;;;16.50;;
79585;SDS011;69054;50.866;4.636;2023-11-22T07:01:42;38.45;;;14.63;;
79585;SDS011;69054;50.866;4.636;2023-11-22T07:04:08;39.38;;;14.75;;
79585;SDS011;69054;50.866;4.636;2023-11-22T07:06:33;41.83;;;16.00;;
79585;SDS011;69054;50.866;4.636;2023-11-22T07:08:58;42.25;;;14.43;;
79585;SDS011;69054;50.866;4.636;2023-11-22T07:11:24;44.95;;;14.10;;
79585;SDS011;69054;50.866;4.636;2023-11-22T07:13:51;43.92;;;16.55;;
79585;SDS011;69054;50.866;4.636;2023-11-22T07:16:17;44.70;;;15.52;;
79585;SDS011;69054;50.866;4.636;2023-11-22T07:18:43;44.10;;;14.63;;
79585;SDS011;69054;50.866;4.636;2023-11-22T07:21:10;42.20;;;15.60;;
79585;SDS011;69054;50.866;4.636;2023-11-22T07:23:36;38.80;;;14.13;;
79585;SDS011;69054;50.866;4.636;2023-11-22T07:26:03;41.35;;;15.05;;
79585;SDS011;69054;50.866;4.636;2023-11-22T07:28:28;39.33;;;14.95;;
79585;SDS011;69054;50.866;4.636;2023-11-22T07:30:54;40.22;;;15.25;;
79585;SDS011;69054;50.866;4.636;2023-11-22T07:33:19;39.05;;;15.75;;
79585;SDS011;69054;50.866;4.636;2023-11-22T07:35:46;37.38;;;13.77;;
79585;SDS011;69054;50.866;4.636;2023-11-22T07:38:11;37.15;;;13.88;;
79585;SDS011;69054;50.866;4.636;2023-11-22T07:40:37;40.40;;;14.90;;
79585;SDS011;69054;50.866;4.636;2023-11-22T07:43:02;41.85;;;16.10;;
79585;SDS011;69054;50.866;4.636;2023-11-22T07:45:30;42.72;;;17.48;;
79585;SDS011;69054;50.866;4.636;2023-11-22T07:47:57;45.88;;;17.77;;
79585;SDS011;69054;50.866;4.636;2023-11-22T07:50:24;39.33;;;15.50;;
79585;SDS011;69054;50.866;4.636;2023-11-22T07:52:52;45.22;;;15.80;;
79585;SDS011;69054;50.866;4.636;2023-11-22T07:55:18;47.30;;;15.07;;
79585;SDS011;69054;50.866;4.636;2023-11-22T07:57:44;42.95;;;15.43;;
79585;SDS011;69054;50.866;4.636;2023-11-22T08:00:10;48.33;;;15.27;;
79585;SDS011;69054;50.866;4.636;2023-11-22T08:02:36;43.95;;;15.32;;
79585;SDS011;69054;50.866;4.636;2023-11-22T08:05:04;45.05;;;16.40;;
79585;SDS011;69054;50.866;4.636;2023-11-22T08:07:33;42.15;;;14.38;;
79585;SDS011;69054;50.866;4.636;2023-11-22T08:10:04;37.47;;;15.27;;
79585;SDS011;69054;50.866;4.636;2023-11-22T08:12:46;49.33;;;16.83;;
79585;SDS011;69054;50.866;4.636;2023-11-22T08:15:14;41.85;;;15.05;;
79585;SDS011;69054;50.866;4.636;2023-11-22T08:17:41;41.78;;;15.30;;
79585;SDS011;69054;50.866;4.636;2023-11-22T08:20:08;49.22;;;16.30;;
79585;SDS011;69054;50.866;4.636;2023-11-22T08:22:38;49.90;;;16.65;;
79585;SDS011;69054;50.866;4.636;2023-11-22T08:25:05;42.38;;;16.60;;
79585;SDS011;69054;50.866;4.636;2023-11-22T08:27:37;46.80;;;15.77;;
79585;SDS011;69054;50.866;4.636;2023-11-22T08:30:02;39.08;;;14.57;;
79585;SDS011;69054;50.866;4.636;2023-11-22T08:32:32;43.10;;;16.88;;
79585;SDS011;69054;50.866;4.636;2023-11-22T08:34:58;38.78;;;14.02;;
79585;SDS011;69054;50.866;4.636;2023-11-22T08:37:23;44.83;;;17.00;;
79585;SDS011;69054;50.866;4.636;2023-11-22T08:39:50;37.75;;;14.30;;
79585;SDS011;69054;50.866;4.636;2023-11-22T08:42:15;37.60;;;14.57;;
79585;SDS011;69054;50.866;4.636;2023-11-22T08:44:41;34.67;;;13.65;;
79585;SDS011;69054;50.866;4.636;2023-11-22T08:47:06;34.65;;;13.02;;
79585;SDS011;69054;50.866;4.636;2023-11-22T08:49:33;38.85;;;14.27;;
79585;SDS011;69054;50.866;4.636;2023-11-22T08:51:59;37.05;;;14.15;;
79585;SDS011;69054;50.866;4.636;2023-11-22T08:54:24;32.10;;;12.27;;
79585;SDS011;69054;50.866;4.636;2023-11-22T08:56:53;32.88;;;13.45;;
79585;SDS011;69054;50.866;4.636;2023-11-22T08:59:22;30.50;;;12.82;;
79585;SDS011;69054;50.866;4.636;2023-11-22T09:01:47;32.72;;;14.05;;
79585;SDS011;69054;50.866;4.636;2023-11-22T09:04:13;33.88;;;13.15;;
79585;SDS011;69054;50.866;4.636;2023-11-22T09:06:38;33.85;;;13.68;;
79585;SDS011;69054;50.866;4.636;2023-11-22T09:09:04;29.67;;;12.88;;
79585;SDS011;69054;50.866;4.636;2023-11-22T09:11:30;64.50;;;30.95;;
79585;SDS011;69054;50.866;4.636;2023-11-22T09:13:56;135.30;;;72.55;;
79585;SDS011;69054;50.866;4.636;2023-11-22T09:16:22;34.33;;;14.32;;
79585;SDS011;69054;50.866;4.636;2023-11-22T09:18:50;44.13;;;18.40;;
79585;SDS011;69054;50.866;4.636;2023-11-22T09:21:16;35.70;;;14.50;;
79585;SDS011;69054;50.866;4.636;2023-11-22T09:23:42;33.50;;;12.68;;
79585;SDS011;69054;50.866;4.636;2023-11-22T09:26:08;32.10;;;13.13;;
79585;SDS011;69054;50.866;4.636;2023-11-22T09:28:34;33.42;;;14.68;;
79585;SDS011;69054;50.866;4.636;2023-11-22T09:31:01;29.73;;;13.90;;
79585;SDS011;69054;50.866;4.636;2023-11-22T09:33:31;29.30;;;12.38;;
79585;SDS011;69054;50.866;4.636;2023-11-22T09:35:57;31.67;;;12.50;;
79585;SDS011;69054;50.866;4.636;2023-11-22T09:38:25;28.25;;;13.45;;
79585;SDS011;69054;50.866;4.636;2023-11-22T09:40:51;29.20;;;12.52;;
79585;SDS011;69054;50.866;4.636;2023-11-22T09:43:17;31.38;;;12.75;;
79585;SDS011;69054;50.866;4.636;2023-11-22T09:45:45;33.60;;;14.32;;
79585;SDS011;69054;50.866;4.636;2023-11-22T09:53:08;31.90;;;13.60;;
79585;SDS011;69054;50.866;4.636;2023-11-22T09:55:38;26.13;;;11.98;;
79585;SDS011;69054;50.866;4.636;2023-11-22T09:58:08;35.20;;;13.68;;
79585;SDS011;69054;50.866;4.636;2023-11-22T10:00:35;31.90;;;13.68;;
79585;SDS011;69054;50.866;4.636;2023-11-22T10:03:00;31.20;;;13.43;;
79585;SDS011;69054;50.866;4.636;2023-11-22T10:05:26;27.65;;;12.73;;
79585;SDS011;69054;50.866;4.636;2023-11-22T10:07:53;30.85;;;13.35;;
79585;SDS011;69054;50.866;4.636;2023-11-22T10:10:20;27.33;;;11.98;;
79585;SDS011;69054;50.866;4.636;2023-11-22T10:12:48;28.20;;;11.95;;
79585;SDS011;69054;50.866;4.636;2023-11-22T10:15:14;31.40;;;11.20;;
79585;SDS011;69054;50.866;4.636;2023-11-22T10:17:41;30.38;;;13.02;;
79585;SDS011;69054;50.866;4.636;2023-11-22T10:20:18;33.90;;;12.05;;
79585;SDS011;69054;50.866;4.636;2023-11-22T10:22:43;28.45;;;12.75;;
79585;SDS011;69054;50.866;4.636;2023-11-22T10:25:11;31.42;;;13.63;;
79585;SDS011;69054;50.866;4.636;2023-11-22T10:27:38;23.52;;;9.82;;
79585;SDS011;69054;50.866;4.636;2023-11-22T10:30:03;28.00;;;13.00;;
79585;SDS011;69054;50.866;4.636;2023-11-22T10:32:29;27.10;;;11.65;;
79585;SDS011;69054;50.866;4.636;2023-11-22T10:34:55;43.08;;;19.85;;
79585;SDS011;69054;50.866;4.636;2023-11-22T10:37:20;32.63;;;15.30;;
79585;SDS011;69054;50.866;4.636;2023-11-22T10:39:52;32.42;;;12.93;;
79585;SDS011;69054;50.866;4.636;2023-11-22T10:42:18;63.90;;;34.42;;
79585;SDS011;69054;50.866;4.636;2023-11-22T10:44:44;25.85;;;12.38;;
79585;SDS011;69054;50.866;4.636;2023-11-22T10:47:12;26.52;;;12.77;;
79585;SDS011;69054;50.866;4.636;2023-11-22T10:49:40;27.17;;;12.15;;
79585;SDS011;69054;50.866;4.636;2023-11-22T10:52:07;35.15;;;15.57;;
79585;SDS011;69054;50.866;4.636;2023-11-22T10:54:33;25.55;;;11.80;;
79585;SDS011;69054;50.866;4.636;2023-11-22T10:57:02;19.80;;;8.90;;
79585;SDS011;69054;50.866;4.636;2023-11-22T10:59:28;26.88;;;12.50;;
79585;SDS011;69054;50.866;4.636;2023-11-22T11:01:56;22.98;;;10.15;;
79585;SDS011;69054;50.866;4.636;2023-11-22T11:04:29;21.27;;;10.13;;
79585;SDS011;69054;50.866;4.636;2023-11-22T11:07:02;58.60;;;50.97;;
79585;SDS011;69054;50.866;4.636;2023-11-22T11:09:28;19.23;;;9.50;;
79585;SDS011;69054;50.866;4.636;2023-11-22T11:11:57;18.20;;;9.10;;
79585;SDS011;69054;50.866;4.636;2023-11-22T11:14:23;24.38;;;13.43;;
79585;SDS011;69054;50.866;4.636;2023-11-22T11:16:51;18.02;;;9.13;;
79585;SDS011;69054;50.866;4.636;2023-11-22T11:19:19;21.13;;;9.88;;
79585;SDS011;69054;50.866;4.636;2023-11-22T11:21:50;17.23;;;8.48;;
79585;SDS011;69054;50.866;4.636;2023-11-22T11:24:16;24.85;;;11.70;;
79585;SDS011;69054;50.866;4.636;2023-11-22T11:26:47;16.25;;;8.25;;
79585;SDS011;69054;50.866;4.636;2023-11-22T11:29:33;21.10;;;9.82;;
79585;SDS011;69054;50.866;4.636;2023-11-22T11:32:04;27.27;;;9.73;;
79585;SDS011;69054;50.866;4.636;2023-11-22T11:34:31;19.52;;;8.98;;
79585;SDS011;69054;50.866;4.636;2023-11-22T11:36:56;21.67;;;9.73;;
79585;SDS011;69054;50.866;4.636;2023-11-22T11:39:25;18.35;;;8.73;;
79585;SDS011;69054;50.866;4.636;2023-11-22T11:42:07;18.30;;;9.38;;
79585;SDS011;69054;50.866;4.636;2023-11-22T11:44:36;20.25;;;9.82;;
79585;SDS011;69054;50.866;4.636;2023-11-22T11:47:10;18.02;;;9.02;;
79585;SDS011;69054;50.866;4.636;2023-11-22T11:49:39;17.33;;;8.63;;
79585;SDS011;69054;50.866;4.636;2023-11-22T11:52:05;15.73;;;7.20;;
79585;SDS011;69054;50.866;4.636;2023-11-22T11:54:32;17.05;;;8.43;;
79585;SDS011;69054;50.866;4.636;2023-11-22T11:56:58;16.52;;;8.10;;
79585;SDS011;69054;50.866;4.636;2023-11-22T11:59:25;21.27;;;15.35;;
79585;SDS011;69054;50.866;4.636;2023-11-22T12:01:54;17.58;;;11.25;;
79585;SDS011;69054;50.866;4.636;2023-11-22T12:09:21;12.65;;;6.85;;
79585;SDS011;69054;50.866;4.636;2023-11-22T12:11:50;17.83;;;8.55;;
79585;SDS011;69054;50.866;4.636;2023-11-22T12:14:18;17.45;;;9.45;;
79585;SDS011;69054;50.866;4.636;2023-11-22T12:16:44;17.15;;;8.70;;
79585;SDS011;69054;50.866;4.636;2023-11-22T12:19:20;18.80;;;9.57;;
79585;SDS011;69054;50.866;4.636;2023-11-22T12:21:49;17.02;;;8.75;;
79585;SDS011;69054;50.866;4.636;2023-11-22T12:24:15;16.20;;;9.07;;
79585;SDS011;69054;50.866;4.636;2023-11-22T12:26:44;17.45;;;8.93;;
79585;SDS011;69054;50.866;4.636;2023-11-22T12:29:14;20.13;;;9.80;;
79585;SDS011;69054;50.866;4.636;2023-11-22T12:31:49;17.95;;;8.30;;
79585;SDS011;69054;50.866;4.636;2023-11-22T12:34:17;15.07;;;7.30;;
79585;SDS011;69054;50.866;4.636;2023-11-22T12:36:42;14.43;;;7.80;;
79585;SDS011;69054;50.866;4.636;2023-11-22T12:39:09;17.40;;;8.57;;
79585;SDS011;69054;50.866;4.636;2023-11-22T12:41:51;15.27;;;8.25;;
79585;SDS011;69054;50.866;4.636;2023-11-22T12:46:46;21.33;;;8.10;;
79585;SDS011;69054;50.866;4.636;2023-11-22T12:49:14;22.02;;;8.15;;
79585;SDS011;69054;50.866;4.636;2023-11-22T12:51:45;14.18;;;7.45;;
79585;SDS011;69054;50.866;4.636;2023-11-22T12:54:11;17.38;;;7.40;;
79585;SDS011;69054;50.866;4.636;2023-11-22T12:56:37;16.80;;;8.80;;
79585;SDS011;69054;50.866;4.636;2023-11-22T12:59:02;15.45;;;7.25;;
79585;SDS011;69054;50.866;4.636;2023-11-22T13:01:28;17.30;;;7.70;;
79585;SDS011;69054;50.866;4.636;2023-11-22T13:03:54;17.42;;;8.48;;
79585;SDS011;69054;50.866;4.636;2023-11-22T13:06:19;19.05;;;9.02;;
79585;SDS011;69054;50.866;4.636;2023-11-22T13:08:45;16.23;;;8.38;;
79585;SDS011;69054;50.866;4.636;2023-11-22T13:11:10;13.75;;;8.38;;
79585;SDS011;69054;50.866;4.636;2023-11-22T13:13:35;20.90;;;11.93;;
79585;SDS011;69054;50.866;4.636;2023-11-22T13:16:01;17.17;;;9.18;;
79585;SDS011;69054;50.866;4.636;2023-11-22T13:18:27;20.17;;;10.55;;
79585;SDS011;69054;50.866;4.636;2023-11-22T13:20:53;17.23;;;8.55;;
79585;SDS011;69054;50.866;4.636;2023-11-22T13:23:18;15.93;;;8.48;;
79585;SDS011;69054;50.866;4.636;2023-11-22T13:25:44;19.98;;;11.25;;
79585;SDS011;69054;50.866;4.636;2023-11-22T13:28:12;18.00;;;10.77;;
79585;SDS011;69054;50.866;4.636;2023-11-22T13:30:38;18.20;;;8.57;;
79585;SDS011;69054;50.866;4.636;2023-11-22T13:33:03;19.08;;;9.55;;
79585;SDS011;69054;50.866;4.636;2023-11-22T13:35:29;14.18;;;8.57;;
79585;SDS011;69054;50.866;4.636;2023-11-22T13:37:56;19.55;;;9.30;;
79585;SDS011;69054;50.866;4.636;2023-11-22T13:40:24;17.90;;;8.80;;
79585;SDS011;69054;50.866;4.636;2023-11-22T13:42:52;17.10;;;8.55;;
79585;SDS011;69054;50.866;4.636;2023-11-22T13:45:18;14.55;;;6.50;;
79585;SDS011;69054;50.866;4.636;2023-11-22T13:47:49;16.60;;;8.68;;
79585;SDS011;69054;50.866;4.636;2023-11-22T13:50:17;13.52;;;7.22;;
79585;SDS011;69054;50.866;4.636;2023-11-22T13:52:52;16.48;;;8.68;;
79585;SDS011;69054;50.866;4.636;2023-11-22T13:55:18;17.63;;;7.90;;
79585;SDS011;69054;50.866;4.636;2023-11-22T13:57:54;17.00;;;7.38;;
79585;SDS011;69054;50.866;4.636;2023-11-22T14:00:23;17.70;;;7.93;;
79585;SDS011;69054;50.866;4.636;2023-11-22T14:02:55;14.15;;;7.22;;
79585;SDS011;69054;50.866;4.636;2023-11-22T14:07:50;16.90;;;7.07;;
79585;SDS011;69054;50.866;4.636;2023-11-22T14:10:16;16.00;;;7.93;;
79585;SDS011;69054;50.866;4.636;2023-11-22T14:12:42;15.70;;;8.45;;
79585;SDS011;69054;50.866;4.636;2023-11-22T14:15:09;12.02;;;6.60;;
79585;SDS011;69054;50.866;4.636;2023-11-22T14:17:35;13.20;;;6.78;;
79585;SDS011;69054;50.866;4.636;2023-11-22T14:20:02;12.85;;;6.55;;
79585;SDS011;69054;50.866;4.636;2023-11-22T14:22:30;18.40;;;8.32;;
79585;SDS011;69054;50.866;4.636;2023-11-22T14:24:56;19.08;;;11.10;;
79585;SDS011;69054;50.866;4.636;2023-11-22T14:27:22;16.70;;;8.23;;
79585;SDS011;69054;50.866;4.636;2023-11-22T14:29:47;15.65;;;8.50;;
79585;SDS011;69054;50.866;4.636;2023-11-22T14:32:19;19.83;;;8.88;;
79585;SDS011;69054;50.866;4.636;2023-11-22T14:34:45;17.63;;;8.05;;